Skip Navigation LinksHome page > Weather > Current weather Skip Navigation Links

Current Weather

Indira Gandhi Intl Apt, New Delhi, India

For information only: do not use for flight planning or navigation.
Latest weather
Observation time Saturday, October 25, 2014 11:00 PM IST
Local time Saturday, October 25, 2014 11:40 PM IST
Flight conditions Low Instrument Meteorological Conditions
Winds
Wind direction East (100°)
Wind speed 3 mph
Visibility 0.9 mi.
Present weather smoke
Sky condition
Ceiling unlimited
Temperature 75°F
Dewpoint 61°F
Altimeter 29.97 in.Hg
Derived measurements
Relative humidity 61%
Density altitude 2000 ft.
Remarks
No significant changes expected in the next two hours.
METAR VIDP 251730Z 10003KT 1500 R28/29/P2000 FU NSC 24/16 Q1015 NOSIG

Settings

Location code

InnerDrive.Weather 4.0.5399.0 Release CLR 4.0.30319.34014
Copyright ©2014 Inner Drive Technology. All rights reserved. Portions Copyright ©1986-2014 David Braverman.

Find weather

Site navigation


Skip Navigation Links

Place info

Page info

PayPal - The safer, easier way to pay online!

Return home.

Copyright ©2014 Inner Drive Technology. Purveyors of fine, hand-crafted computer software. Page printed 2014-10-25T18:10:11 UTC.